createdAt,value
2023-03-22T00:00:28.050Z,15.82
2023-03-22T00:02:57.110Z,16.85
2023-03-22T00:05:24.518Z,16.95
2023-03-22T00:07:54.402Z,17.90
2023-03-22T00:10:21.623Z,20.00
2023-03-22T00:12:51.746Z,21.48
2023-03-22T00:15:19.941Z,22.42
2023-03-22T00:17:47.237Z,17.50
2023-03-22T00:20:14.406Z,15.70
2023-03-22T00:22:41.624Z,22.63
2023-03-22T00:25:09.184Z,21.60
2023-03-22T00:27:36.564Z,16.95
2023-03-22T00:30:05.885Z,17.02
2023-03-22T00:32:37.628Z,21.40
2023-03-22T00:35:06.092Z,16.83
2023-03-22T00:37:34.208Z,17.77
2023-03-22T00:40:01.726Z,19.35
2023-03-22T00:42:31.639Z,13.30
2023-03-22T00:44:58.822Z,19.27
2023-03-22T00:47:29.192Z,20.80
2023-03-22T00:50:00.266Z,22.52
2023-03-22T00:52:28.991Z,22.55
2023-03-22T00:54:57.448Z,21.98
2023-03-22T00:57:24.808Z,15.38
2023-03-22T00:59:54.066Z,18.20
2023-03-22T01:02:29.825Z,26.13
2023-03-22T01:05:00.060Z,19.00
2023-03-22T01:07:33.250Z,22.80
2023-03-22T01:10:04.583Z,18.88
2023-03-22T01:12:32.198Z,19.25
2023-03-22T01:14:59.320Z,24.88
2023-03-22T01:17:26.629Z,16.67
2023-03-22T01:19:54.020Z,15.63
2023-03-22T01:22:22.282Z,21.20
2023-03-22T01:24:50.499Z,23.08
2023-03-22T01:27:23.003Z,20.15
2023-03-22T01:29:51.006Z,26.58
2023-03-22T01:32:19.028Z,26.55
2023-03-22T01:34:49.246Z,18.20
2023-03-22T01:37:18.709Z,22.23
2023-03-22T01:39:49.625Z,29.20
2023-03-22T01:42:18.415Z,18.17
2023-03-22T01:45:15.149Z,24.23
2023-03-22T01:47:58.073Z,23.42
2023-03-22T01:50:26.475Z,25.45
2023-03-22T01:52:56.050Z,19.20
2023-03-22T01:55:33.801Z,24.90
2023-03-22T01:58:18.351Z,23.95
2023-03-22T02:00:59.781Z,27.35
2023-03-22T02:03:54.131Z,26.38
2023-03-22T02:06:30.136Z,25.08
2023-03-22T02:09:13.269Z,25.02
2023-03-22T02:11:59.054Z,21.67
2023-03-22T02:15:18.952Z,25.08
2023-03-22T02:18:21.342Z,20.63
2023-03-22T02:21:25.413Z,25.35
2023-03-22T02:24:17.483Z,19.13
2023-03-22T02:27:27.263Z,23.30
2023-03-22T02:30:27.886Z,19.92
2023-03-22T02:33:31.262Z,24.27
2023-03-22T02:36:19.197Z,18.27
2023-03-22T02:39:11.976Z,17.17
2023-03-22T02:41:47.023Z,20.60
2023-03-22T02:44:36.236Z,19.20
2023-03-22T02:47:42.467Z,22.58
2023-03-22T02:50:50.006Z,24.67
2023-03-22T02:53:40.972Z,18.30
2023-03-22T02:56:21.511Z,24.67
2023-03-22T02:59:00.042Z,24.88
2023-03-22T03:01:55.333Z,18.13
2023-03-22T03:04:28.991Z,18.58
2023-03-22T03:07:04.863Z,23.88
2023-03-22T03:09:33.741Z,21.92
2023-03-22T03:12:00.878Z,25.17
2023-03-22T03:14:31.054Z,26.05
2023-03-22T03:17:25.271Z,18.75
2023-03-22T03:20:08.317Z,26.15
2023-03-22T03:22:50.727Z,20.42
2023-03-22T03:25:33.200Z,25.70
2023-03-22T03:28:11.692Z,18.25
2023-03-22T03:31:03.891Z,26.35
2023-03-22T03:33:36.172Z,20.55
2023-03-22T03:36:10.883Z,17.15
2023-03-22T03:38:44.839Z,18.55
2023-03-22T03:41:16.637Z,26.45
2023-03-22T03:43:46.293Z,26.20
2023-03-22T03:46:13.975Z,20.13
2023-03-22T03:48:48.437Z,18.88
2023-03-22T03:51:15.657Z,34.90
2023-03-22T03:53:43.058Z,26.90
2023-03-22T03:56:11.267Z,22.40
2023-03-22T03:58:43.503Z,27.00
2023-03-22T04:01:11.190Z,25.95
2023-03-22T04:03:38.302Z,24.48
2023-03-22T04:06:28.103Z,24.60
2023-03-22T04:09:02.003Z,20.70
2023-03-22T04:11:33.079Z,25.38
2023-03-22T04:14:02.697Z,20.17
2023-03-22T04:16:29.985Z,21.08
2023-03-22T04:18:57.258Z,22.73
2023-03-22T04:21:24.515Z,23.90
2023-03-22T04:24:00.734Z,30.95
2023-03-22T04:26:31.305Z,23.92
2023-03-22T04:29:35.045Z,25.25
2023-03-22T04:34:53.543Z,29.95
2023-03-22T04:37:31.747Z,22.80
2023-03-22T04:40:16.707Z,29.98
2023-03-22T04:43:04.333Z,30.92
2023-03-22T04:48:22.350Z,37.25
2023-03-22T04:53:27.625Z,36.08
2023-03-22T04:56:00.036Z,25.60
2023-03-22T04:58:30.598Z,35.97
2023-03-22T05:00:58.741Z,37.92
2023-03-22T05:03:26.418Z,38.53
2023-03-22T05:05:56.985Z,36.53
2023-03-22T05:08:31.092Z,36.17
2023-03-22T05:11:04.546Z,38.95
2023-03-22T05:13:31.857Z,37.42
2023-03-22T05:15:59.971Z,40.33
2023-03-22T05:18:45.683Z,36.20
2023-03-22T05:21:22.262Z,35.35
2023-03-22T05:23:56.752Z,36.35
2023-03-22T05:26:26.407Z,34.00
2023-03-22T05:28:55.972Z,35.13
2023-03-22T05:31:38.668Z,32.85
2023-03-22T05:34:08.236Z,32.88
2023-03-22T05:36:37.747Z,39.20
2023-03-22T05:39:28.212Z,33.75
2023-03-22T05:42:01.824Z,38.35
2023-03-22T05:44:31.383Z,37.55
2023-03-22T05:47:12.166Z,34.78
2023-03-22T05:49:48.731Z,43.85
2023-03-22T05:52:16.429Z,33.53
2023-03-22T05:54:54.618Z,38.92
2023-03-22T05:57:25.139Z,37.85
2023-03-22T05:59:54.658Z,34.47
2023-03-22T06:02:28.704Z,30.30
2023-03-22T06:04:57.329Z,40.47
2023-03-22T06:07:32.592Z,40.50
2023-03-22T06:10:16.309Z,37.78
2023-03-22T06:12:44.020Z,38.22
2023-03-22T06:15:17.303Z,42.17
2023-03-22T06:17:56.338Z,32.72
2023-03-22T06:20:27.561Z,36.25
2023-03-22T06:23:04.087Z,39.45
2023-03-22T06:25:33.126Z,36.95
2023-03-22T06:28:03.881Z,35.38
2023-03-22T06:30:31.652Z,41.05
2023-03-22T06:33:17.531Z,37.50
2023-03-22T06:35:54.729Z,40.28
2023-03-22T06:38:34.164Z,40.60
2023-03-22T06:41:04.161Z,48.55
2023-03-22T06:43:31.428Z,55.83
2023-03-22T06:46:10.724Z,45.95
2023-03-22T06:48:46.093Z,41.38
2023-03-22T06:51:18.408Z,36.38
2023-03-22T06:53:46.590Z,43.63
2023-03-22T06:56:16.084Z,39.25
2023-03-22T06:58:52.057Z,47.97
2023-03-22T07:01:19.656Z,31.75
2023-03-22T07:03:47.533Z,36.70
2023-03-22T07:06:17.012Z,42.10
2023-03-22T07:08:50.827Z,38.17
2023-03-22T07:11:25.502Z,42.03
2023-03-22T07:13:58.380Z,41.38
2023-03-22T07:16:28.990Z,33.65
2023-03-22T07:18:59.421Z,37.10
2023-03-22T07:21:26.602Z,36.72
2023-03-22T07:24:02.166Z,36.33
2023-03-22T07:26:31.955Z,37.50
2023-03-22T07:29:00.282Z,33.83
2023-03-22T07:31:31.746Z,42.15
2023-03-22T07:34:01.814Z,36.58
2023-03-22T07:36:32.822Z,37.35
2023-03-22T07:39:00.491Z,36.92
2023-03-22T07:41:34.710Z,32.92
2023-03-22T07:44:40.360Z,45.58
2023-03-22T07:47:40.308Z,32.45
2023-03-22T07:50:28.218Z,38.05
2023-03-22T07:52:57.438Z,38.85
2023-03-22T07:55:24.717Z,36.33
2023-03-22T07:57:51.967Z,43.15
2023-03-22T08:00:20.147Z,42.28
2023-03-22T08:02:58.225Z,39.63
2023-03-22T08:05:45.701Z,42.58
2023-03-22T08:08:15.036Z,44.25
2023-03-22T08:10:42.237Z,40.83
2023-03-22T08:13:09.693Z,45.03
2023-03-22T08:15:39.041Z,39.20
2023-03-22T08:18:11.037Z,39.50
2023-03-22T08:20:40.756Z,30.65
2023-03-22T08:26:22.435Z,40.10
2023-03-22T08:28:52.530Z,40.85
2023-03-22T08:31:20.347Z,34.17
2023-03-22T08:33:47.907Z,43.25
2023-03-22T08:36:23.055Z,38.70
2023-03-22T08:39:00.983Z,41.90
2023-03-22T08:44:10.321Z,46.35
2023-03-22T08:46:37.356Z,33.67
2023-03-22T08:49:04.703Z,38.70
2023-03-22T08:51:36.133Z,36.22
2023-03-22T08:54:15.900Z,39.95
2023-03-22T08:57:09.730Z,35.60
2023-03-22T08:59:57.980Z,34.30
2023-03-22T09:02:44.571Z,55.88
2023-03-22T09:05:13.677Z,41.55
2023-03-22T09:07:42.561Z,34.40
2023-03-22T09:10:18.386Z,34.15
2023-03-22T09:12:48.072Z,39.00
2023-03-22T09:15:15.588Z,38.03
2023-03-22T09:17:46.916Z,32.78
2023-03-22T09:20:14.861Z,31.92
2023-03-22T09:22:44.113Z,40.70
2023-03-22T09:25:14.039Z,32.75
2023-03-22T09:27:43.996Z,42.30
2023-03-22T09:30:11.737Z,30.33
2023-03-22T09:32:39.710Z,36.75
2023-03-22T09:35:07.257Z,30.00
2023-03-22T09:37:45.868Z,33.63
2023-03-22T09:40:17.790Z,29.90
2023-03-22T09:42:50.044Z,26.60
2023-03-22T09:45:30.872Z,34.75
2023-03-22T09:47:59.895Z,29.63
2023-03-22T09:50:31.572Z,25.35
2023-03-22T09:53:01.990Z,24.98
2023-03-22T09:55:43.697Z,30.95
2023-03-22T09:58:24.346Z,30.08
2023-03-22T10:01:03.330Z,28.88
2023-03-22T10:03:33.980Z,22.83
2023-03-22T10:06:09.313Z,22.95
2023-03-22T10:09:14.171Z,27.40
2023-03-22T10:11:55.952Z,24.88
2023-03-22T10:14:45.603Z,26.52
2023-03-22T10:17:17.820Z,28.73
2023-03-22T10:19:51.125Z,26.83
2023-03-22T10:22:25.266Z,24.15
2023-03-22T10:24:58.249Z,34.67
2023-03-22T10:27:27.062Z,34.35
2023-03-22T10:29:56.930Z,31.30
2023-03-22T10:32:51.245Z,24.95
2023-03-22T10:35:23.869Z,22.67
2023-03-22T10:37:52.994Z,21.98
2023-03-22T10:40:27.305Z,30.73
2023-03-22T10:43:03.476Z,17.63
2023-03-22T10:45:34.096Z,22.35
2023-03-22T10:48:06.239Z,20.45
2023-03-22T10:50:37.073Z,24.20
2023-03-22T10:53:06.468Z,22.52
2023-03-22T10:55:39.343Z,20.17
2023-03-22T10:58:14.056Z,22.13
2023-03-22T11:01:05.051Z,17.58
2023-03-22T11:03:35.259Z,21.70
2023-03-22T11:06:07.641Z,18.38
2023-03-22T11:08:57.320Z,22.48
2023-03-22T11:11:32.727Z,21.45
2023-03-22T11:14:02.339Z,19.20
2023-03-22T11:16:31.907Z,22.85
2023-03-22T11:19:02.224Z,21.65
2023-03-22T11:21:33.587Z,22.27
2023-03-22T11:24:05.954Z,25.23
2023-03-22T11:26:45.311Z,18.88
2023-03-22T11:29:19.518Z,18.75
2023-03-22T11:31:56.094Z,15.38
2023-03-22T11:34:28.995Z,20.50
2023-03-22T11:37:02.125Z,19.88
2023-03-22T11:39:30.402Z,16.52
2023-03-22T11:42:01.711Z,12.15
2023-03-22T11:44:34.797Z,19.15
2023-03-22T11:47:04.590Z,16.25
2023-03-22T11:49:52.549Z,17.40
2023-03-22T11:52:24.498Z,11.10
2023-03-22T11:54:53.018Z,15.40
2023-03-22T11:57:34.207Z,16.38
2023-03-22T12:00:10.772Z,16.65
2023-03-22T12:02:52.604Z,12.18
2023-03-22T12:05:32.659Z,15.23
2023-03-22T12:08:02.173Z,15.57
2023-03-22T12:10:33.923Z,12.07
2023-03-22T12:13:07.482Z,16.83
2023-03-22T12:15:49.454Z,13.57
2023-03-22T12:18:24.665Z,16.85
2023-03-22T12:20:57.631Z,12.68
2023-03-22T12:23:27.596Z,12.80
2023-03-22T12:26:01.280Z,9.93
2023-03-22T12:28:50.223Z,10.35
2023-03-22T12:31:23.457Z,14.38
2023-03-22T12:34:16.480Z,10.25
2023-03-22T12:36:53.729Z,11.05
2023-03-22T12:39:30.359Z,20.25
2023-03-22T12:42:06.739Z,11.32
2023-03-22T12:47:13.500Z,10.55
2023-03-22T12:49:52.129Z,20.13
2023-03-22T12:52:45.858Z,18.25
2023-03-22T12:58:01.501Z,18.90
2023-03-22T13:00:53.937Z,14.90
2023-03-22T13:03:21.405Z,17.45
2023-03-22T13:05:50.472Z,18.50
2023-03-22T13:08:22.569Z,11.05
2023-03-22T13:11:01.819Z,6.97
2023-03-22T13:13:28.866Z,10.52
2023-03-22T13:15:56.031Z,14.23
2023-03-22T13:18:40.112Z,9.38
2023-03-22T13:21:26.777Z,7.78
2023-03-22T13:24:00.883Z,11.90
2023-03-22T13:26:47.914Z,11.15
2023-03-22T13:29:20.204Z,8.70
2023-03-22T13:31:58.521Z,12.23
2023-03-22T13:34:44.605Z,11.13
2023-03-22T13:37:30.424Z,9.35
2023-03-22T13:40:04.731Z,11.38
2023-03-22T13:42:39.134Z,12.45
2023-03-22T13:45:32.143Z,15.65
2023-03-22T13:48:28.863Z,6.35
2023-03-22T13:50:58.581Z,13.52
2023-03-22T13:53:30.977Z,10.48
2023-03-22T13:56:03.857Z,8.00
2023-03-22T13:58:36.464Z,9.52
2023-03-22T14:01:07.238Z,8.63
2023-03-22T14:03:42.491Z,10.75
2023-03-22T14:06:41.483Z,9.07
2023-03-22T14:09:21.278Z,11.07
2023-03-22T14:11:55.756Z,11.52
2023-03-22T14:14:31.397Z,10.18
2023-03-22T14:17:20.195Z,8.23
2023-03-22T14:19:49.109Z,12.55
